sensor_id;sensor_type;location;lat;lon;timestamp;pressure;altitude;pressure_sealevel;temperature;humidity
13968;BME280;39536;52.198;9.920;2023-10-08T00:01:18;101133.78;;;14.28;100.00
13968;BME280;39536;52.198;9.920;2023-10-08T00:03:47;101139.03;;;13.81;100.00
13968;BME280;39536;52.198;9.920;2023-10-08T00:06:16;101136.31;;;13.59;100.00
13968;BME280;39536;52.198;9.920;2023-10-08T00:08:46;101139.78;;;13.59;100.00
13968;BME280;39536;52.198;9.920;2023-10-08T00:11:13;101146.06;;;13.55;100.00
13968;BME280;39536;52.198;9.920;2023-10-08T00:13:41;101164.53;;;13.51;100.00
13968;BME280;39536;52.198;9.920;2023-10-08T00:16:10;101164.41;;;13.54;100.00
13968;BME280;39536;52.198;9.920;2023-10-08T00:18:37;101180.75;;;13.60;100.00
13968;BME280;39536;52.198;9.920;2023-10-08T00:21:05;101194.16;;;13.51;100.00
13968;BME280;39536;52.198;9.920;2023-10-08T00:23:42;101200.19;;;13.28;100.00
13968;BME280;39536;52.198;9.920;2023-10-08T00:26:16;101205.13;;;13.37;100.00
13968;BME280;39536;52.198;9.920;2023-10-08T00:28:54;101206.56;;;13.46;100.00
13968;BME280;39536;52.198;9.920;2023-10-08T00:31:21;101212.13;;;13.37;100.00
13968;BME280;39536;52.198;9.920;2023-10-08T00:33:51;101201.88;;;13.29;100.00
13968;BME280;39536;52.198;9.920;2023-10-08T00:36:18;101194.84;;;13.31;100.00
13968;BME280;39536;52.198;9.920;2023-10-08T00:38:45;101204.25;;;13.37;100.00
13968;BME280;39536;52.198;9.920;2023-10-08T00:41:17;101207.09;;;13.31;100.00
13968;BME280;39536;52.198;9.920;2023-10-08T00:43:47;101220.38;;;13.23;100.00
13968;BME280;39536;52.198;9.920;2023-10-08T00:46:15;101226.44;;;13.24;100.00
13968;BME280;39536;52.198;9.920;2023-10-08T00:48:49;101239.59;;;13.22;100.00
13968;BME280;39536;52.198;9.920;2023-10-08T00:51:17;101247.22;;;13.30;100.00
13968;BME280;39536;52.198;9.920;2023-10-08T00:53:59;101256.34;;;13.45;100.00
13968;BME280;39536;52.198;9.920;2023-10-08T00:56:34;101263.84;;;13.29;100.00
13968;BME280;39536;52.198;9.920;2023-10-08T00:59:22;101273.28;;;13.33;100.00
13968;BME280;39536;52.198;9.920;2023-10-08T01:01:51;101283.81;;;13.31;100.00
13968;BME280;39536;52.198;9.920;2023-10-08T01:04:24;101286.88;;;13.16;100.00
13968;BME280;39536;52.198;9.920;2023-10-08T01:06:53;101288.75;;;13.12;100.00
13968;BME280;39536;52.198;9.920;2023-10-08T01:09:24;101272.31;;;13.07;100.00
13968;BME280;39536;52.198;9.920;2023-10-08T01:12:12;101287.44;;;12.98;100.00
13968;BME280;39536;52.198;9.920;2023-10-08T01:14:41;101312.38;;;13.09;100.00
13968;BME280;39536;52.198;9.920;2023-10-08T01:17:09;101311.69;;;12.75;100.00
13968;BME280;39536;52.198;9.920;2023-10-08T01:19:38;101338.59;;;12.47;100.00
13968;BME280;39536;52.198;9.920;2023-10-08T01:22:09;101338.75;;;12.41;100.00
13968;BME280;39536;52.198;9.920;2023-10-08T01:24:42;101370.06;;;12.42;100.00
13968;BME280;39536;52.198;9.920;2023-10-08T01:27:09;101334.22;;;12.47;100.00
13968;BME280;39536;52.198;9.920;2023-10-08T01:29:37;101352.34;;;12.21;100.00
13968;BME280;39536;52.198;9.920;2023-10-08T01:32:04;101353.38;;;12.15;100.00
13968;BME280;39536;52.198;9.920;2023-10-08T01:34:35;101355.47;;;12.01;100.00
13968;BME280;39536;52.198;9.920;2023-10-08T01:37:02;101341.50;;;11.66;100.00
13968;BME280;39536;52.198;9.920;2023-10-08T01:39:36;101361.25;;;11.41;100.00
13968;BME280;39536;52.198;9.920;2023-10-08T01:42:03;101357.16;;;11.29;100.00
13968;BME280;39536;52.198;9.920;2023-10-08T01:44:31;101394.47;;;11.32;100.00
13968;BME280;39536;52.198;9.920;2023-10-08T01:46:59;101376.66;;;11.13;100.00
13968;BME280;39536;52.198;9.920;2023-10-08T01:49:26;101352.09;;;11.21;100.00
13968;BME280;39536;52.198;9.920;2023-10-08T01:51:57;101361.34;;;11.36;100.00
13968;BME280;39536;52.198;9.920;2023-10-08T01:54:24;101378.28;;;11.55;100.00
13968;BME280;39536;52.198;9.920;2023-10-08T01:56:53;101385.19;;;11.58;100.00
13968;BME280;39536;52.198;9.920;2023-10-08T01:59:19;101374.22;;;11.81;100.00
13968;BME280;39536;52.198;9.920;2023-10-08T02:01:46;101381.63;;;11.99;100.00
13968;BME280;39536;52.198;9.920;2023-10-08T02:04:13;101391.88;;;12.07;100.00
13968;BME280;39536;52.198;9.920;2023-10-08T02:06:41;101393.44;;;12.14;100.00
13968;BME280;39536;52.198;9.920;2023-10-08T02:09:08;101396.91;;;12.15;100.00
13968;BME280;39536;52.198;9.920;2023-10-08T02:11:45;101416.72;;;12.23;100.00
13968;BME280;39536;52.198;9.920;2023-10-08T02:14:16;101390.56;;;12.25;100.00
13968;BME280;39536;52.198;9.920;2023-10-08T02:16:43;101389.25;;;12.41;100.00
13968;BME280;39536;52.198;9.920;2023-10-08T02:19:10;101382.69;;;12.59;100.00
13968;BME280;39536;52.198;9.920;2023-10-08T02:21:37;101369.38;;;12.68;100.00
13968;BME280;39536;52.198;9.920;2023-10-08T02:24:07;101380.28;;;12.83;100.00
13968;BME280;39536;52.198;9.920;2023-10-08T02:26:36;101377.31;;;12.95;100.00
13968;BME280;39536;52.198;9.920;2023-10-08T02:29:03;101388.25;;;13.08;100.00
13968;BME280;39536;52.198;9.920;2023-10-08T02:31:37;101376.84;;;13.12;100.00
13968;BME280;39536;52.198;9.920;2023-10-08T02:34:04;101363.47;;;13.21;100.00
13968;BME280;39536;52.198;9.920;2023-10-08T02:36:33;101355.31;;;13.32;100.00
13968;BME280;39536;52.198;9.920;2023-10-08T02:39:01;101365.59;;;13.38;100.00
13968;BME280;39536;52.198;9.920;2023-10-08T02:41:31;101355.53;;;13.24;100.00
13968;BME280;39536;52.198;9.920;2023-10-08T02:43:58;101348.38;;;13.31;100.00
13968;BME280;39536;52.198;9.920;2023-10-08T02:46:25;101343.19;;;13.29;100.00
13968;BME280;39536;52.198;9.920;2023-10-08T02:48:56;101350.34;;;13.23;100.00
13968;BME280;39536;52.198;9.920;2023-10-08T02:51:23;101355.72;;;13.18;100.00
13968;BME280;39536;52.198;9.920;2023-10-08T02:53:50;101358.38;;;13.16;100.00
13968;BME280;39536;52.198;9.920;2023-10-08T02:56:17;101361.72;;;13.22;100.00
13968;BME280;39536;52.198;9.920;2023-10-08T02:58:44;101359.88;;;13.24;100.00
13968;BME280;39536;52.198;9.920;2023-10-08T03:01:12;101366.81;;;13.26;100.00
13968;BME280;39536;52.198;9.920;2023-10-08T03:03:40;101372.91;;;13.27;100.00
13968;BME280;39536;52.198;9.920;2023-10-08T03:06:08;101369.50;;;13.23;100.00
13968;BME280;39536;52.198;9.920;2023-10-08T03:08:37;101365.19;;;13.22;100.00
13968;BME280;39536;52.198;9.920;2023-10-08T03:11:08;101368.91;;;13.13;100.00
13968;BME280;39536;52.198;9.920;2023-10-08T03:13:43;101349.78;;;13.11;100.00
13968;BME280;39536;52.198;9.920;2023-10-08T03:16:12;101351.47;;;13.14;100.00
13968;BME280;39536;52.198;9.920;2023-10-08T03:18:39;101346.91;;;13.21;100.00
13968;BME280;39536;52.198;9.920;2023-10-08T03:21:10;101344.25;;;13.22;100.00
13968;BME280;39536;52.198;9.920;2023-10-08T03:23:46;101352.69;;;13.32;100.00
13968;BME280;39536;52.198;9.920;2023-10-08T03:26:14;101363.22;;;13.30;100.00
13968;BME280;39536;52.198;9.920;2023-10-08T03:28:59;101364.19;;;13.28;100.00
13968;BME280;39536;52.198;9.920;2023-10-08T03:31:30;101376.16;;;13.35;100.00
13968;BME280;39536;52.198;9.920;2023-10-08T03:34:15;101375.25;;;13.36;100.00
13968;BME280;39536;52.198;9.920;2023-10-08T03:36:46;101388.56;;;13.28;100.00
13968;BME280;39536;52.198;9.920;2023-10-08T03:39:15;101398.97;;;13.30;100.00
13968;BME280;39536;52.198;9.920;2023-10-08T03:41:44;101405.25;;;13.24;100.00
13968;BME280;39536;52.198;9.920;2023-10-08T03:44:23;101419.06;;;13.29;100.00
13968;BME280;39536;52.198;9.920;2023-10-08T03:46:50;101426.88;;;13.31;100.00
13968;BME280;39536;52.198;9.920;2023-10-08T03:49:18;101419.22;;;13.25;100.00
13968;BME280;39536;52.198;9.920;2023-10-08T03:51:53;101417.22;;;13.33;100.00
13968;BME280;39536;52.198;9.920;2023-10-08T03:54:23;101420.72;;;13.32;100.00
13968;BME280;39536;52.198;9.920;2023-10-08T03:56:55;101409.44;;;13.30;100.00
13968;BME280;39536;52.198;9.920;2023-10-08T03:59:23;101423.66;;;13.21;100.00
13968;BME280;39536;52.198;9.920;2023-10-08T04:01:57;101427.91;;;13.25;100.00
13968;BME280;39536;52.198;9.920;2023-10-08T04:04:26;101424.38;;;13.26;100.00
13968;BME280;39536;52.198;9.920;2023-10-08T04:07:09;101423.59;;;13.23;100.00
13968;BME280;39536;52.198;9.920;2023-10-08T04:10:03;101430.44;;;13.28;100.00
13968;BME280;39536;52.198;9.920;2023-10-08T04:12:47;101440.19;;;13.22;100.00
13968;BME280;39536;52.198;9.920;2023-10-08T04:15:16;101436.44;;;13.01;100.00
13968;BME280;39536;52.198;9.920;2023-10-08T04:17:43;101433.56;;;12.79;100.00
13968;BME280;39536;52.198;9.920;2023-10-08T04:20:11;101442.31;;;12.78;100.00
13968;BME280;39536;52.198;9.920;2023-10-08T04:22:56;101451.09;;;12.75;100.00
13968;BME280;39536;52.198;9.920;2023-10-08T04:25:26;101459.09;;;12.69;100.00
13968;BME280;39536;52.198;9.920;2023-10-08T04:27:54;101460.56;;;12.45;100.00
13968;BME280;39536;52.198;9.920;2023-10-08T04:30:24;101453.91;;;12.33;100.00
13968;BME280;39536;52.198;9.920;2023-10-08T04:32:57;101463.78;;;12.22;100.00
13968;BME280;39536;52.198;9.920;2023-10-08T04:35:24;101465.53;;;12.21;100.00
13968;BME280;39536;52.198;9.920;2023-10-08T04:37:52;101459.03;;;12.38;100.00
13968;BME280;39536;52.198;9.920;2023-10-08T04:40:19;101469.44;;;12.39;100.00
13968;BME280;39536;52.198;9.920;2023-10-08T04:42:50;101461.44;;;12.45;100.00
13968;BME280;39536;52.198;9.920;2023-10-08T04:45:19;101466.13;;;12.33;100.00
13968;BME280;39536;52.198;9.920;2023-10-08T04:47:51;101457.25;;;12.40;100.00
13968;BME280;39536;52.198;9.920;2023-10-08T04:50:19;101463.13;;;12.48;100.00
13968;BME280;39536;52.198;9.920;2023-10-08T04:52:46;101464.66;;;12.55;100.00
13968;BME280;39536;52.198;9.920;2023-10-08T04:55:23;101463.16;;;12.46;100.00
13968;BME280;39536;52.198;9.920;2023-10-08T04:57:55;101470.78;;;12.54;100.00
13968;BME280;39536;52.198;9.920;2023-10-08T05:00:23;101463.13;;;12.48;100.00
13968;BME280;39536;52.198;9.920;2023-10-08T05:03:07;101471.09;;;12.43;100.00
13968;BME280;39536;52.198;9.920;2023-10-08T05:05:39;101473.50;;;12.51;100.00
13968;BME280;39536;52.198;9.920;2023-10-08T05:08:20;101486.91;;;12.37;100.00
13968;BME280;39536;52.198;9.920;2023-10-08T05:10:58;101485.09;;;12.41;100.00
13968;BME280;39536;52.198;9.920;2023-10-08T05:13:41;101478.38;;;12.31;100.00
13968;BME280;39536;52.198;9.920;2023-10-08T05:16:22;101474.78;;;12.35;100.00
13968;BME280;39536;52.198;9.920;2023-10-08T05:19:02;101474.16;;;12.59;100.00
13968;BME280;39536;52.198;9.920;2023-10-08T05:21:49;101485.00;;;12.78;100.00
13968;BME280;39536;52.198;9.920;2023-10-08T05:24:31;101489.22;;;12.84;100.00
13968;BME280;39536;52.198;9.920;2023-10-08T05:27:04;101504.91;;;12.84;100.00
13968;BME280;39536;52.198;9.920;2023-10-08T05:30:04;101509.97;;;12.90;100.00
13968;BME280;39536;52.198;9.920;2023-10-08T05:32:41;101505.84;;;12.81;100.00
13968;BME280;39536;52.198;9.920;2023-10-08T05:35:31;101517.84;;;12.54;100.00
13968;BME280;39536;52.198;9.920;2023-10-08T05:38:20;101532.94;;;12.43;100.00
13968;BME280;39536;52.198;9.920;2023-10-08T05:41:03;101529.13;;;12.56;100.00
13968;BME280;39536;52.198;9.920;2023-10-08T05:43:48;101525.44;;;12.65;100.00
13968;BME280;39536;52.198;9.920;2023-10-08T05:46:33;101537.06;;;12.52;100.00
13968;BME280;39536;52.198;9.920;2023-10-08T05:49:33;101538.91;;;12.48;100.00
13968;BME280;39536;52.198;9.920;2023-10-08T05:52:08;101543.91;;;12.20;100.00
13968;BME280;39536;52.198;9.920;2023-10-08T05:54:53;101552.53;;;12.25;100.00
13968;BME280;39536;52.198;9.920;2023-10-08T05:57:37;101545.94;;;12.09;100.00
13968;BME280;39536;52.198;9.920;2023-10-08T06:00:12;101545.69;;;12.19;100.00
13968;BME280;39536;52.198;9.920;2023-10-08T06:02:58;101555.59;;;12.42;100.00
13968;BME280;39536;52.198;9.920;2023-10-08T06:05:36;101564.19;;;12.47;100.00
13968;BME280;39536;52.198;9.920;2023-10-08T06:08:29;101575.47;;;12.50;100.00
13968;BME280;39536;52.198;9.920;2023-10-08T06:11:16;101574.56;;;12.51;100.00
13968;BME280;39536;52.198;9.920;2023-10-08T06:14:03;101582.13;;;12.25;100.00
13968;BME280;39536;52.198;9.920;2023-10-08T06:16:39;101590.72;;;12.31;100.00
13968;BME280;39536;52.198;9.920;2023-10-08T06:19:08;101592.38;;;12.33;100.00
13968;BME280;39536;52.198;9.920;2023-10-08T06:21:36;101579.09;;;12.42;100.00
13968;BME280;39536;52.198;9.920;2023-10-08T06:24:04;101580.72;;;12.48;100.00
13968;BME280;39536;52.198;9.920;2023-10-08T06:26:35;101575.50;;;12.48;100.00
13968;BME280;39536;52.198;9.920;2023-10-08T06:29:09;101595.69;;;12.41;100.00
13968;BME280;39536;52.198;9.920;2023-10-08T06:31:45;101592.06;;;12.47;100.00
13968;BME280;39536;52.198;9.920;2023-10-08T06:34:18;101590.03;;;12.58;100.00
13968;BME280;39536;52.198;9.920;2023-10-08T06:36:47;101594.81;;;12.77;100.00
13968;BME280;39536;52.198;9.920;2023-10-08T06:39:15;101595.88;;;12.69;100.00
13968;BME280;39536;52.198;9.920;2023-10-08T06:41:44;101596.31;;;12.53;100.00
13968;BME280;39536;52.198;9.920;2023-10-08T06:44:12;101595.69;;;12.41;100.00
13968;BME280;39536;52.198;9.920;2023-10-08T06:46:40;101602.59;;;12.44;100.00
13968;BME280;39536;52.198;9.920;2023-10-08T06:49:08;101615.25;;;12.61;100.00
13968;BME280;39536;52.198;9.920;2023-10-08T06:51:39;101616.03;;;12.64;100.00
13968;BME280;39536;52.198;9.920;2023-10-08T06:54:07;101613.88;;;12.82;100.00
13968;BME280;39536;52.198;9.920;2023-10-08T06:56:36;101610.66;;;12.72;100.00
13968;BME280;39536;52.198;9.920;2023-10-08T06:59:04;101633.69;;;12.56;100.00
13968;BME280;39536;52.198;9.920;2023-10-08T07:01:31;101642.50;;;12.51;100.00
13968;BME280;39536;52.198;9.920;2023-10-08T07:04:05;101657.28;;;12.52;100.00
13968;BME280;39536;52.198;9.920;2023-10-08T07:06:32;101646.25;;;12.39;100.00
13968;BME280;39536;52.198;9.920;2023-10-08T07:09:01;101646.59;;;12.62;100.00
13968;BME280;39536;52.198;9.920;2023-10-08T07:11:31;101654.09;;;12.78;100.00
13968;BME280;39536;52.198;9.920;2023-10-08T07:14:00;101650.38;;;12.86;100.00
13968;BME280;39536;52.198;9.920;2023-10-08T07:16:27;101656.50;;;12.85;100.00
13968;BME280;39536;52.198;9.920;2023-10-08T07:18:54;101657.25;;;12.90;100.00
13968;BME280;39536;52.198;9.920;2023-10-08T07:21:27;101661.59;;;12.91;100.00
13968;BME280;39536;52.198;9.920;2023-10-08T07:23:55;101660.06;;;12.83;100.00
13968;BME280;39536;52.198;9.920;2023-10-08T07:26:27;101666.00;;;12.89;100.00
13968;BME280;39536;52.198;9.920;2023-10-08T07:29:01;101674.66;;;12.91;100.00
13968;BME280;39536;52.198;9.920;2023-10-08T07:31:33;101680.31;;;13.10;100.00
13968;BME280;39536;52.198;9.920;2023-10-08T07:34:02;101680.13;;;13.18;100.00
13968;BME280;39536;52.198;9.920;2023-10-08T07:36:41;101696.78;;;13.14;100.00
13968;BME280;39536;52.198;9.920;2023-10-08T07:39:08;101694.53;;;12.99;100.00
13968;BME280;39536;52.198;9.920;2023-10-08T07:41:50;101694.81;;;12.88;100.00
13968;BME280;39536;52.198;9.920;2023-10-08T07:44:16;101693.13;;;12.85;100.00
13968;BME280;39536;52.198;9.920;2023-10-08T07:46:46;101679.66;;;13.02;100.00
13968;BME280;39536;52.198;9.920;2023-10-08T07:49:13;101668.63;;;13.25;100.00
13968;BME280;39536;52.198;9.920;2023-10-08T07:51:40;101676.69;;;13.16;100.00
13968;BME280;39536;52.198;9.920;2023-10-08T07:54:07;101691.81;;;13.03;100.00
13968;BME280;39536;52.198;9.920;2023-10-08T07:56:35;101694.38;;;13.06;100.00
13968;BME280;39536;52.198;9.920;2023-10-08T07:59:04;101684.16;;;12.95;100.00
13968;BME280;39536;52.198;9.920;2023-10-08T08:01:34;101685.84;;;12.98;100.00
13968;BME280;39536;52.198;9.920;2023-10-08T08:04:02;101690.47;;;13.23;100.00
13968;BME280;39536;52.198;9.920;2023-10-08T08:06:29;101705.88;;;13.36;100.00
13968;BME280;39536;52.198;9.920;2023-10-08T08:08:56;101698.78;;;13.40;100.00
13968;BME280;39536;52.198;9.920;2023-10-08T08:11:23;101703.81;;;13.48;100.00
13968;BME280;39536;52.198;9.920;2023-10-08T08:13:51;101706.81;;;13.67;100.00
13968;BME280;39536;52.198;9.920;2023-10-08T08:16:20;101697.41;;;13.59;100.00
13968;BME280;39536;52.198;9.920;2023-10-08T08:18:47;101706.00;;;13.65;100.00
13968;BME280;39536;52.198;9.920;2023-10-08T08:21:15;101701.25;;;13.79;100.00
13968;BME280;39536;52.198;9.920;2023-10-08T08:23:46;101702.53;;;13.95;100.00
13968;BME280;39536;52.198;9.920;2023-10-08T08:26:17;101712.56;;;14.12;100.00
13968;BME280;39536;52.198;9.920;2023-10-08T08:28:54;101729.53;;;14.30;100.00
13968;BME280;39536;52.198;9.920;2023-10-08T08:31:24;101732.00;;;14.35;100.00
13968;BME280;39536;52.198;9.920;2023-10-08T08:33:51;101731.66;;;14.45;100.00
13968;BME280;39536;52.198;9.920;2023-10-08T08:36:25;101715.78;;;14.51;100.00
13968;BME280;39536;52.198;9.920;2023-10-08T08:38:52;101709.22;;;14.37;100.00
13968;BME280;39536;52.198;9.920;2023-10-08T08:41:20;101713.38;;;14.44;100.00
13968;BME280;39536;52.198;9.920;2023-10-08T08:43:49;101715.00;;;14.48;100.00
13968;BME280;39536;52.198;9.920;2023-10-08T08:46:27;101711.50;;;14.49;100.00
13968;BME280;39536;52.198;9.920;2023-10-08T08:49:00;101717.94;;;14.67;100.00
13968;BME280;39536;52.198;9.920;2023-10-08T08:51:29;101722.53;;;14.60;100.00
13968;BME280;39536;52.198;9.920;2023-10-08T08:53:56;101716.22;;;14.67;100.00
13968;BME280;39536;52.198;9.920;2023-10-08T08:56:26;101720.53;;;14.68;100.00
13968;BME280;39536;52.198;9.920;2023-10-08T08:58:53;101735.44;;;14.68;100.00
13968;BME280;39536;52.198;9.920;2023-10-08T09:01:21;101730.84;;;14.74;100.00
13968;BME280;39536;52.198;9.920;2023-10-08T09:03:50;101729.72;;;14.83;100.00
13968;BME280;39536;52.198;9.920;2023-10-08T09:06:16;101736.47;;;14.90;100.00
13968;BME280;39536;52.198;9.920;2023-10-08T09:08:43;101739.38;;;15.09;100.00
13968;BME280;39536;52.198;9.920;2023-10-08T09:11:14;101746.94;;;15.18;100.00
13968;BME280;39536;52.198;9.920;2023-10-08T09:13:41;101739.09;;;15.17;100.00
13968;BME280;39536;52.198;9.920;2023-10-08T09:16:12;101754.56;;;14.99;100.00
13968;BME280;39536;52.198;9.920;2023-10-08T09:18:41;101755.16;;;15.08;100.00
13968;BME280;39536;52.198;9.920;2023-10-08T09:21:11;101758.78;;;15.04;100.00
13968;BME280;39536;52.198;9.920;2023-10-08T09:23:41;101748.94;;;15.10;100.00
13968;BME280;39536;52.198;9.920;2023-10-08T09:26:13;101756.28;;;15.27;100.00
13968;BME280;39536;52.198;9.920;2023-10-08T09:28:40;101753.66;;;15.54;100.00
13968;BME280;39536;52.198;9.920;2023-10-08T09:31:10;101766.19;;;15.72;100.00
13968;BME280;39536;52.198;9.920;2023-10-08T09:33:38;101771.63;;;15.67;100.00
13968;BME280;39536;52.198;9.920;2023-10-08T09:36:05;101771.94;;;15.57;100.00
13968;BME280;39536;52.198;9.920;2023-10-08T09:38:37;101768.84;;;15.44;100.00
13968;BME280;39536;52.198;9.920;2023-10-08T09:41:04;101767.22;;;15.66;100.00
13968;BME280;39536;52.198;9.920;2023-10-08T09:43:34;101769.75;;;15.71;100.00
13968;BME280;39536;52.198;9.920;2023-10-08T09:46:08;101766.00;;;15.52;100.00
13968;BME280;39536;52.198;9.920;2023-10-08T09:48:37;101759.72;;;15.56;100.00
13968;BME280;39536;52.198;9.920;2023-10-08T09:51:05;101761.75;;;15.74;100.00
13968;BME280;39536;52.198;9.920;2023-10-08T09:53:42;101768.72;;;16.00;100.00
13968;BME280;39536;52.198;9.920;2023-10-08T09:56:13;101759.53;;;16.12;100.00
13968;BME280;39536;52.198;9.920;2023-10-08T09:58:41;101763.09;;;16.11;100.00
13968;BME280;39536;52.198;9.920;2023-10-08T10:01:10;101759.97;;;16.48;100.00
13968;BME280;39536;52.198;9.920;2023-10-08T10:03:37;101754.88;;;16.67;100.00
13968;BME280;39536;52.198;9.920;2023-10-08T10:06:11;101761.72;;;16.95;100.00
13968;BME280;39536;52.198;9.920;2023-10-08T10:08:41;101760.19;;;17.11;100.00
13968;BME280;39536;52.198;9.920;2023-10-08T10:11:09;101764.31;;;17.39;100.00
13968;BME280;39536;52.198;9.920;2023-10-08T10:13:41;101756.97;;;17.67;100.00
13968;BME280;39536;52.198;9.920;2023-10-08T10:16:10;101747.94;;;17.93;100.00
13968;BME280;39536;52.198;9.920;2023-10-08T10:18:38;101741.03;;;17.70;100.00
13968;BME280;39536;52.198;9.920;2023-10-08T10:21:24;101744.09;;;17.39;100.00
13968;BME280;39536;52.198;9.920;2023-10-08T10:23:51;101753.19;;;17.32;100.00
13968;BME280;39536;52.198;9.920;2023-10-08T10:26:25;101749.78;;;17.28;100.00
13968;BME280;39536;52.198;9.920;2023-10-08T10:29:18;101763.31;;;17.41;100.00
13968;BME280;39536;52.198;9.920;2023-10-08T10:31:46;101770.78;;;17.52;100.00
13968;BME280;39536;52.198;9.920;2023-10-08T10:34:16;101764.94;;;17.45;100.00
13968;BME280;39536;52.198;9.920;2023-10-08T10:36:44;101756.69;;;17.53;100.00
13968;BME280;39536;52.198;9.920;2023-10-08T10:39:15;101771.25;;;17.62;100.00
13968;BME280;39536;52.198;9.920;2023-10-08T10:41:44;101783.97;;;17.52;100.00
13968;BME280;39536;52.198;9.920;2023-10-08T10:44:11;101800.44;;;17.13;100.00
13968;BME280;39536;52.198;9.920;2023-10-08T10:46:41;101790.44;;;17.23;100.00
13968;BME280;39536;52.198;9.920;2023-10-08T10:49:08;101782.50;;;17.45;100.00
13968;BME280;39536;52.198;9.920;2023-10-08T10:51:44;101790.00;;;17.76;100.00
13968;BME280;39536;52.198;9.920;2023-10-08T10:54:12;101801.09;;;18.05;100.00
13968;BME280;39536;52.198;9.920;2023-10-08T10:56:46;101791.19;;;17.89;100.00
13968;BME280;39536;52.198;9.920;2023-10-08T10:59:21;101776.41;;;18.26;100.00
13968;BME280;39536;52.198;9.920;2023-10-08T11:01:52;101774.53;;;18.28;100.00
13968;BME280;39536;52.198;9.920;2023-10-08T11:04:30;101768.34;;;18.29;100.00
13968;BME280;39536;52.198;9.920;2023-10-08T11:06:59;101773.97;;;18.40;100.00
13968;BME280;39536;52.198;9.920;2023-10-08T11:09:27;101781.06;;;18.59;100.00
13968;BME280;39536;52.198;9.920;2023-10-08T11:12:06;101787.94;;;18.82;100.00
13968;BME280;39536;52.198;9.920;2023-10-08T11:14:37;101804.81;;;19.15;100.00
13968;BME280;39536;52.198;9.920;2023-10-08T11:17:16;101784.66;;;19.49;100.00
13968;BME280;39536;52.198;9.920;2023-10-08T11:19:44;101756.63;;;19.64;100.00
13968;BME280;39536;52.198;9.920;2023-10-08T11:22:11;101751.34;;;19.64;100.00
13968;BME280;39536;52.198;9.920;2023-10-08T11:24:41;101757.59;;;19.61;100.00
13968;BME280;39536;52.198;9.920;2023-10-08T11:27:15;101774.47;;;19.59;100.00
13968;BME280;39536;52.198;9.920;2023-10-08T11:29:43;101790.63;;;19.53;100.00
13968;BME280;39536;52.198;9.920;2023-10-08T11:32:11;101763.44;;;19.33;100.00
13968;BME280;39536;52.198;9.920;2023-10-08T11:34:41;101747.81;;;19.46;100.00
13968;BME280;39536;52.198;9.920;2023-10-08T11:37:08;101734.91;;;19.40;100.00
13968;BME280;39536;52.198;9.920;2023-10-08T11:39:46;101739.81;;;19.30;100.00
13968;BME280;39536;52.198;9.920;2023-10-08T11:42:15;101759.22;;;18.93;100.00
13968;BME280;39536;52.198;9.920;2023-10-08T11:44:59;101774.13;;;18.56;100.00
13968;BME280;39536;52.198;9.920;2023-10-08T11:47:43;101786.19;;;18.62;100.00
13968;BME280;39536;52.198;9.920;2023-10-08T11:50:10;101791.19;;;18.68;100.00
13968;BME280;39536;52.198;9.920;2023-10-08T11:52:42;101777.56;;;18.58;100.00
13968;BME280;39536;52.198;9.920;2023-10-08T11:55:09;101760.31;;;18.70;100.00
13968;BME280;39536;52.198;9.920;2023-10-08T11:57:41;101734.72;;;18.91;100.00
13968;BME280;39536;52.198;9.920;2023-10-08T12:00:11;101728.09;;;19.00;100.00
13968;BME280;39536;52.198;9.920;2023-10-08T12:02:44;101727.91;;;19.22;100.00
13968;BME280;39536;52.198;9.920;2023-10-08T12:05:11;101728.13;;;19.17;100.00
13968;BME280;39536;52.198;9.920;2023-10-08T12:07:45;101741.44;;;18.97;100.00
13968;BME280;39536;52.198;9.920;2023-10-08T12:10:11;101749.28;;;19.17;100.00
13968;BME280;39536;52.198;9.920;2023-10-08T12:12:40;101750.47;;;18.92;100.00
13968;BME280;39536;52.198;9.920;2023-10-08T12:15:08;101745.53;;;19.04;100.00
13968;BME280;39536;52.198;9.920;2023-10-08T12:17:35;101743.19;;;19.15;100.00
13968;BME280;39536;52.198;9.920;2023-10-08T12:20:06;101731.13;;;19.28;95.70
13968;BME280;39536;52.198;9.920;2023-10-08T12:22:48;101739.81;;;19.13;98.68
13968;BME280;39536;52.198;9.920;2023-10-08T12:25:18;101740.34;;;18.83;97.28
13968;BME280;39536;52.198;9.920;2023-10-08T12:27:46;101742.25;;;18.61;99.39
13968;BME280;39536;52.198;9.920;2023-10-08T12:30:14;101739.22;;;18.12;100.00
13968;BME280;39536;52.198;9.920;2023-10-08T12:32:40;101745.00;;;17.81;100.00
13968;BME280;39536;52.198;9.920;2023-10-08T12:35:11;101738.53;;;17.67;100.00
13968;BME280;39536;52.198;9.920;2023-10-08T12:37:39;101733.88;;;17.72;100.00
13968;BME280;39536;52.198;9.920;2023-10-08T12:40:07;101722.50;;;17.72;100.00
13968;BME280;39536;52.198;9.920;2023-10-08T12:42:37;101717.03;;;17.56;100.00
13968;BME280;39536;52.198;9.920;2023-10-08T12:45:07;101722.19;;;17.39;100.00
13968;BME280;39536;52.198;9.920;2023-10-08T12:47:37;101717.03;;;17.36;100.00
13968;BME280;39536;52.198;9.920;2023-10-08T12:50:05;101710.31;;;17.49;100.00
13968;BME280;39536;52.198;9.920;2023-10-08T12:52:33;101705.66;;;17.76;100.00
13968;BME280;39536;52.198;9.920;2023-10-08T12:55:01;101696.06;;;17.94;100.00
13968;BME280;39536;52.198;9.920;2023-10-08T12:57:29;101694.50;;;17.90;100.00
13968;BME280;39536;52.198;9.920;2023-10-08T12:59:58;101679.28;;;17.76;100.00
13968;BME280;39536;52.198;9.920;2023-10-08T13:02:26;101671.31;;;17.98;100.00